FYLZ/LUD METAR and TAF weather

Enter ICAO airport designator
Station Type Date Time Source
FYLZ METAR 2018/04/06 05:00 UTC NOAA

FYLZ 060500Z AUTO 19010KT //// // ////// 14/12 Q1010


Station Type Date Time Source
FYLZ Decoded METAR 2018/04/06 05:00 UTC NOAA

Luderitz / Diaz Point, Namibia (FYLZ) 26-41S 015-15E
Apr 06, 2018 - 01:00 AM EDT / 2018.04.06 0500 UTC
Wind: from the S (190 degrees) at 12 MPH (10 KT):0
Temperature: 57 F (14 C)
Dew Point: 53 F (12 C)
Relative Humidity: 87%
Pressure (altimeter): 29.83 in. Hg (1010 hPa)
ob: FYLZ 060500Z AUTO 19010KT //// // ////// 14/12 Q1010
cycle: 5

Station Type Date Time Source
FYLZ TAF 2014/11/15 15:19 UTC NOAA

TAF FYLZ 151400Z 1515/1524 18015G28KT CAVOK
BECMG 1518/1520 16020KT


Example: see airport list